Terminal Aerodrome Forecast
Issued by NWS Wakefield, VA

Home | Current Version | Previous Version | Text Only | Print | Product List | Glossary On
Versions: 1 2 3 4 5 6 7 8 9 10 11 12 13 14 15 16 17 18 19 20
000
FTUS41 KAKQ 041724
TAFSBY
TAF
KSBY 041724Z 0418/0518 07008KT P6SM SCT040
     FM050000 07008KT P6SM BKN050
     FM050300 04008KT P6SM OVC020
     FM050500 03009KT 4SM BR OVC010
     FM051400 05010G15KT P6SM OVC020=

USA.gov is the U.S. government's official web portal to all federal, state and local government web resources and services.